Time;durP1;ratioP1;P1;durP2;ratioP2;P2;SDS_P1;SDS_P2;PMS_P1;PMS_P2;Temp;Humidity;BMP_temperature;BMP_pressure;BME280_temperature;BME280_humidity;BME280_pressure;Samples;Min_cycle;Max_cycle;Signal;HPM_P1;HPM_P2
2023/03/14 00:01:55;;;;;;;32.03;5.82;;;;;;;;;;5119776;27;20046;-72
2023/03/14 00:04:21;;;;;;;33.83;4.95;;;;;;;;;;5119518;27;20043;-72
2023/03/14 00:06:47;;;;;;;30.45;4.20;;;;;;;;;;5119750;27;20129;-71
2023/03/14 00:09:14;;;;;;;26.23;4.15;;;;;;;;;;5119928;27;20047;-72
2023/03/14 00:11:40;;;;;;;32.58;4.28;;;;;;;;;;5102530;27;20047;-72
2023/03/14 00:14:06;;;;;;;36.25;4.65;;;;;;;;;;5119583;27;20054;-72
2023/03/14 00:16:32;;;;;;;22.85;3.60;;;;;;;;;;5118332;27;20091;-72
2023/03/14 00:19:01;;;;;;;23.60;4.50;;;;;;;;;;5118562;27;20035;-72
2023/03/14 00:21:27;;;;;;;25.00;4.90;;;;;;;;;;5101796;27;20487;-74
2023/03/14 00:23:54;;;;;;;21.73;3.78;;;;;;;;;;5119241;27;20105;-72
2023/03/14 00:26:21;;;;;;;34.08;4.95;;;;;;;;;;5118816;27;20121;-72
2023/03/14 00:28:47;;;;;;;20.90;3.78;;;;;;;;;;5118599;27;20042;-72
2023/03/14 00:31:15;;;;;;;28.48;3.70;;;;;;;;;;5119454;27;20075;-72
2023/03/14 00:33:42;;;;;;;31.88;3.58;;;;;;;;;;5137301;27;20043;-72
2023/03/14 00:36:09;;;;;;;20.73;3.83;;;;;;;;;;5119072;27;20122;-72
2023/03/14 00:38:35;;;;;;;27.80;4.32;;;;;;;;;;5118920;27;20039;-72
2023/03/14 00:41:06;;;;;;;22.52;4.00;;;;;;;;;;5118949;27;20070;-72
2023/03/14 00:43:32;;;;;;;20.20;4.07;;;;;;;;;;5118538;27;20420;-72
2023/03/14 00:45:58;;;;;;;25.70;3.75;;;;;;;;;;5102190;27;20043;-72
2023/03/14 00:48:24;;;;;;;29.65;4.45;;;;;;;;;;5118633;27;20475;-72
2023/03/14 00:50:50;;;;;;;28.25;4.85;;;;;;;;;;5118813;27;20050;-72
2023/03/14 00:53:17;;;;;;;25.65;4.20;;;;;;;;;;5135572;27;20039;-72
2023/03/14 00:55:43;;;;;;;29.30;4.43;;;;;;;;;;5101431;27;20063;-67
2023/03/14 00:58:10;;;;;;;20.52;4.22;;;;;;;;;;5118456;27;20047;-69
2023/03/14 01:00:36;;;;;;;24.83;3.65;;;;;;;;;;5118218;27;20069;-67
2023/03/14 01:03:03;;;;;;;26.77;5.38;;;;;;;;;;5118620;27;20043;-67
2023/03/14 01:05:29;;;;;;;24.80;3.80;;;;;;;;;;5118846;27;20047;-67
2023/03/14 01:07:55;;;;;;;26.48;4.78;;;;;;;;;;5118791;27;20042;-66
2023/03/14 01:10:21;;;;;;;26.88;4.60;;;;;;;;;;5118723;27;20390;-67
2023/03/14 01:12:47;;;;;;;29.58;5.80;;;;;;;;;;5117948;27;20081;-66
2023/03/14 01:15:13;;;;;;;30.75;3.90;;;;;;;;;;5118422;27;20068;-67
2023/03/14 01:17:39;;;;;;;31.10;5.15;;;;;;;;;;5118252;27;20088;-66
2023/03/14 01:20:08;;;;;;;30.85;3.60;;;;;;;;;;5118027;27;20046;-67
2023/03/14 01:22:35;;;;;;;26.80;3.90;;;;;;;;;;5118460;27;20060;-67
2023/03/14 01:25:01;;;;;;;27.20;3.83;;;;;;;;;;5117718;27;20517;-66
2023/03/14 01:27:27;;;;;;;19.98;3.55;;;;;;;;;;5100458;27;20047;-67
2023/03/14 01:29:53;;;;;;;22.08;3.67;;;;;;;;;;5118095;27;20065;-67
2023/03/14 01:32:19;;;;;;;26.13;4.10;;;;;;;;;;5100664;27;20039;-66
2023/03/14 01:34:46;;;;;;;28.23;4.38;;;;;;;;;;5117729;27;20406;-67
2023/03/14 01:37:12;;;;;;;30.23;3.97;;;;;;;;;;5101071;27;20035;-67
2023/03/14 01:39:38;;;;;;;22.77;3.50;;;;;;;;;;5117775;27;20075;-66
2023/03/14 01:42:04;;;;;;;36.42;5.57;;;;;;;;;;5118149;27;20035;-67
2023/03/14 01:44:53;;;;;;;29.10;4.60;;;9.70;99.90;;;;;;5117424;27;20134;-67
2023/03/14 01:47:20;;;;;;;29.70;4.80;;;;;;;;;;5117471;27;20089;-73
2023/03/14 01:49:48;;;;;;;31.60;5.22;;;;;;;;;;5117513;27;20039;-72
2023/03/14 01:52:17;;;;;;;38.05;4.75;;;;;;;;;;5117707;27;20100;-72
2023/03/14 01:54:44;;;;;;;42.10;5.05;;;;;;;;;;5117512;27;20055;-72
2023/03/14 01:57:28;;;;;;;36.45;4.47;;;;;;;;;;5134787;27;20043;-72
2023/03/14 02:00:15;;;;;;;35.35;4.68;;;;;;;;;;5117360;27;20487;-72
2023/03/14 02:02:43;;;;;;;36.67;4.13;;;;;;;;;;5135637;27;20076;-72
2023/03/14 02:05:09;;;;;;;31.75;3.75;;;;;;;;;;5117127;27;20040;-72
2023/03/14 02:07:38;;;;;;;31.00;5.28;;;;;;;;;;5117145;27;20047;-72
2023/03/14 02:10:05;;;;;;;30.10;4.03;;;;;;;;;;5117132;27;20390;-72
2023/03/14 02:12:32;;;;;;;28.40;5.50;;;;;;;;;;5116863;27;20537;-72
2023/03/14 02:14:58;;;;;;;26.50;3.53;;;;;;;;;;5117248;27;20035;-72
2023/03/14 02:17:24;;;;;;;23.48;4.07;;;;;;;;;;5117009;27;20065;-71
2023/03/14 02:20:04;;;;;;;24.73;3.80;;;;;;;;;;5099994;27;20372;-72
2023/03/14 02:22:31;;;;;;;25.38;4.03;;;;;;;;;;5117223;27;20154;-71
2023/03/14 02:25:09;;;;;;;22.63;4.15;;;;;;;;;;5115812;27;20039;-71
2023/03/14 02:27:36;;;;;;;25.83;4.53;;;;;;;;;;5116243;27;20043;-71
2023/03/14 02:30:07;;;;;;;30.42;4.40;;;;;;;;;;5116565;27;20046;-72
2023/03/14 02:32:34;;;;;;;19.13;3.92;;;;;;;;;;5135819;27;20035;-71
2023/03/14 02:35:03;;;;;;;26.73;4.00;;;;;;;;;;5121660;27;20054;-71
2023/03/14 02:37:35;;;;;;;22.23;3.83;;;;;;;;;;5117512;27;20042;-71
2023/03/14 02:40:02;;;;;;;22.73;3.78;;;;;;;;;;5116428;27;20039;-71
2023/03/14 02:42:28;;;;;;;30.23;4.00;;;;;;;;;;5116466;27;20058;-71
2023/03/14 02:44:57;;;;;;;30.15;3.97;;;;;;;;;;5116323;27;20035;-71
2023/03/14 02:47:26;;;;;;;22.25;4.53;;;;;;;;;;5116440;27;20043;-71
2023/03/14 02:49:54;;;;;;;29.92;4.07;;;;;;;;;;5116305;27;20047;-71
2023/03/14 02:52:20;;;;;;;32.45;5.10;;;;;;;;;;5116575;27;20141;-72
2023/03/14 02:54:46;;;;;;;39.10;5.68;;;;;;;;;;5115931;27;20055;-71
2023/03/14 02:57:12;;;;;;;25.25;5.65;;;;;;;;;;5115718;27;20031;-71
2023/03/14 02:59:38;;;;;;;24.73;4.05;;;;;;;;;;5115908;27;20532;-72
2023/03/14 03:02:04;;;;;;;30.65;4.03;;;;;;;;;;5116627;27;20470;-71
2023/03/14 03:04:30;;;;;;;30.45;4.63;;;;;;;;;;5116763;27;20035;-71
2023/03/14 03:06:56;;;;;;;31.40;5.18;;;;;;;;;;5116535;27;20039;-71
2023/03/14 03:09:22;;;;;;;30.73;4.88;;;;;;;;;;5134366;27;20039;-71
2023/03/14 03:11:48;;;;;;;34.50;5.13;;;;;;;;;;5115872;27;20043;-71
2023/03/14 03:14:14;;;;;;;28.13;5.35;;;;;;;;;;5116129;27;20068;-71
2023/03/14 03:16:40;;;;;;;29.50;5.03;;;;;;;;;;5115857;27;20525;-71
2023/03/14 03:19:06;;;;;;;30.23;3.75;;;;;;;;;;5133142;27;20031;-71
2023/03/14 03:21:32;;;;;;;36.05;6.18;;;;;;;;;;5132753;27;20045;-71
2023/03/14 03:23:58;;;;;;;40.95;4.72;;;;;;;;;;5115297;27;20035;-71
2023/03/14 03:26:25;;;;;;;31.40;6.35;;;;;;;;;;5115760;27;20035;-71
2023/03/14 03:28:51;;;;;;;34.70;4.90;;;;;;;;;;5116438;27;20122;-71
2023/03/14 03:31:18;;;;;;;35.45;5.10;;;;;;;;;;5116098;27;20035;-71
2023/03/14 03:33:44;;;;;;;31.05;4.63;;;;;;;;;;5115829;28;20039;-71
2023/03/14 03:36:10;;;;;;;31.50;4.13;;;;;;;;;;5115830;28;20479;-71
2023/03/14 03:38:36;;;;;;;41.20;5.75;;;;;;;;;;5115657;28;20382;-71
2023/03/14 03:41:03;;;;;;;31.70;4.65;;;;;;;;;;5115482;27;20479;-71
2023/03/14 03:43:30;;;;;;;43.20;6.28;;;;;;;;;;5115784;28;20051;-71
2023/03/14 03:45:56;;;;;;;38.95;6.63;;;;;;;;;;5115240;28;20444;-71
2023/03/14 03:48:22;;;;;;;35.50;5.13;;;;;;;;;;5115815;28;20414;-71
2023/03/14 03:50:48;;;;;;;35.97;5.53;;;;;;;;;;5115831;28;20038;-71
2023/03/14 03:53:14;;;;;;;40.70;4.65;;;;;;;;;;5115621;28;20046;-71
2023/03/14 03:55:43;;;;;;;37.63;5.72;;;;;;;;;;5115114;28;20059;-71
2023/03/14 03:58:09;;;;;;;43.95;6.13;;;;;;;;;;5115725;28;20042;-72
2023/03/14 04:00:35;;;;;;;41.40;5.78;;;;;;;;;;5115065;28;20035;-71
2023/03/14 04:03:01;;;;;;;43.22;6.60;;;;;;;;;;5115619;28;20172;-71
2023/03/14 04:05:27;;;;;;;46.95;5.95;;;;;;;;;;5098624;28;20043;-72
2023/03/14 04:07:53;;;;;;;39.95;4.70;;;;;;;;;;5098384;28;20494;-72
2023/03/14 04:10:19;;;;;;;36.92;5.75;;;;;;;;;;5115681;28;20058;-71
2023/03/14 04:12:45;;;;;;;50.40;5.60;;;;;;;;;;5115545;28;20126;-71
2023/03/14 04:15:11;;;;;;;48.00;5.75;;;;;;;;;;5115463;28;20478;-72
2023/03/14 04:17:37;;;;;;;34.47;4.32;;;;;;;;;;5149832;27;20039;-71
2023/03/14 04:20:04;;;;;;;39.42;5.47;;;;;;;;;;5115157;28;20035;-71
2023/03/14 04:22:30;;;;;;;40.50;5.32;;;;;;;;;;5115548;28;20050;-71
2023/03/14 04:24:56;;;;;;;39.25;4.72;;;;;;;;;;5114841;28;20054;-71
2023/03/14 04:27:22;;;;;;;39.00;4.85;;;;;;;;;;5115338;28;20039;-71
2023/03/14 04:29:48;;;;;;;33.95;5.05;;;;;;;;;;5115146;28;20043;-72
2023/03/14 04:32:14;;;;;;;47.70;6.80;;;;;;;;;;5115274;28;20047;-66
2023/03/14 04:34:41;;;;;;;55.58;7.88;;;;;;;;;;5134246;27;20043;-67
2023/03/14 04:37:07;;;;;;;47.55;5.25;;;;;;;;;;5118646;27;20039;-67
2023/03/14 04:39:33;;;;;;;30.17;4.20;;;;;;;;;;5119134;27;20364;-67
2023/03/14 04:42:00;;;;;;;35.92;5.70;;;;;;;;;;5136778;27;20417;-66
2023/03/14 04:44:26;;;;;;;29.33;4.10;;;;;;;;;;5102324;27;20047;-66
2023/03/14 04:46:52;;;;;;;36.42;4.53;;;;;;;;;;5104374;28;20167;-70
2023/03/14 04:49:18;;;;;;;31.20;4.55;;;;;;;;;;5145246;27;20035;-70
2023/03/14 04:51:44;;;;;;;24.88;3.85;;;;;;;;;;5118781;27;20400;-70
2023/03/14 04:54:10;;;;;;;26.70;4.57;;;;;;;;;;5118811;27;20120;-70
2023/03/14 04:56:36;;;;;;;28.73;4.30;;;;;;;;;;5118451;27;20039;-70
2023/03/14 04:59:03;;;;;;;20.90;3.88;;;;;;;;;;5118444;27;20035;-70
2023/03/14 05:01:29;;;;;;;21.20;3.97;;;;;;;;;;5136843;27;20122;-70
2023/03/14 05:03:55;;;;;;;24.83;4.05;;;;;;;;;;5084721;27;20524;-70
2023/03/14 05:06:21;;;;;;;24.48;4.43;;;;;;;;;;5118588;27;20038;-70
2023/03/14 05:08:47;;;;;;;17.42;3.95;;;;;;;;;;5118435;27;20031;-70
2023/03/14 05:11:13;;;;;;;21.90;3.88;;;;;;;;;;5135312;27;20066;-70
2023/03/14 05:13:39;;;;;;;18.70;4.68;;;;;;;;;;5118591;27;20490;-70
2023/03/14 05:16:09;;;;;;;23.58;5.25;;;;;;;;;;5118186;27;20040;-70
2023/03/14 05:18:36;;;;;;;18.83;3.72;;;;;;;;;;5118093;27;20509;-71
2023/03/14 05:21:02;;;;;;;13.95;3.70;;;;;;;;;;5118419;27;20050;-71
2023/03/14 05:23:28;;;;;;;18.98;3.83;;;;;;;;;;5117827;27;20039;-71
2023/03/14 05:25:54;;;;;;;22.70;4.15;;;;;;;;;;5118455;27;20403;-73
2023/03/14 05:28:20;;;;;;;15.98;4.70;;;;;;;;;;5118314;27;20047;-73
2023/03/14 05:30:47;;;;;;;10.82;3.28;;;;;;;;;;5118475;27;20360;-73
2023/03/14 05:33:13;;;;;;;19.10;3.25;;;;;;;;;;5118095;27;20460;-73
2023/03/14 05:35:39;;;;;;;13.00;3.60;;;;;;;;;;5117879;27;20547;-74
2023/03/14 05:38:05;;;;;;;13.05;3.50;;;;;;;;;;5117926;27;20031;-72
2023/03/14 05:40:31;;;;;;;13.40;3.50;;;;;;;;;;5118176;27;20046;-72
2023/03/14 05:42:57;;;;;;;12.50;3.60;;;;;;;;;;5118116;27;20035;-72
2023/03/14 05:45:23;;;;;;;11.75;3.03;;;;;;;;;;5118046;28;20043;-71
2023/03/14 05:47:49;;;;;;;15.70;2.17;;;;;;;;;;5117303;27;20100;-65
2023/03/14 05:50:15;;;;;;;6.78;1.90;;;;;;;;;;5136056;27;20060;-66
2023/03/14 05:52:41;;;;;;;5.78;2.05;;;;;;;;;;5117396;27;20046;-65
2023/03/14 05:55:08;;;;;;;10.60;2.00;;;;;;;;;;5117384;27;20051;-66
2023/03/14 05:57:34;;;;;;;13.00;1.98;;;;;;;;;;5117222;27;20051;-66
2023/03/14 06:00:00;;;;;;;21.77;3.00;;;;;;;;;;5117549;27;20039;-66
2023/03/14 06:02:26;;;;;;;25.67;3.13;;;;;;;;;;5135143;27;20039;-66
2023/03/14 06:04:53;;;;;;;22.90;3.47;;;;;;;;;;5117537;27;20043;-66
2023/03/14 06:07:19;;;;;;;30.73;3.20;;;;;;;;;;5134620;27;20100;-66
2023/03/14 06:09:45;;;;;;;35.70;2.97;;;;;;;;;;5100329;27;20047;-66
2023/03/14 06:12:11;;;;;;;18.45;3.20;;;;;;;;;;5135326;27;20493;-65
2023/03/14 06:14:37;;;;;;;19.55;2.33;;;;;;;;;;5135389;27;20448;-66
2023/03/14 06:17:03;;;;;;;22.75;3.10;;;;;;;;;;5117026;27;20406;-66
2023/03/14 06:19:29;;;;;;;16.52;3.22;;;;;;;;;;5099921;27;20035;-66
2023/03/14 06:21:55;;;;;;;14.43;2.17;;;;;;;;;;5116469;27;20379;-66
2023/03/14 06:24:21;;;;;;;11.93;2.03;;;;;;;;;;5135173;27;20104;-67
2023/03/14 06:26:47;;;;;;;14.10;1.75;;;;;;;;;;5116973;27;20114;-67
2023/03/14 06:29:13;;;;;;;9.85;1.48;;;;;;;;;;5116530;27;20035;-67
2023/03/14 06:31:39;;;;;;;13.30;1.73;;;;;;;;;;5116878;27;20079;-67
2023/03/14 06:34:06;;;;;;;10.57;2.03;;;;;;;;;;5116294;27;20043;-69
2023/03/14 06:36:32;;;;;;;14.43;2.15;;;;;;;;;;5116375;27;20043;-67
2023/03/14 06:38:58;;;;;;;10.57;1.50;;;;;;;;;;5115728;27;20110;-68
2023/03/14 06:41:25;;;;;;;20.40;1.90;;;;;;;;;;5115527;27;20035;-69
2023/03/14 06:43:52;;;;;;;10.85;1.73;;;;;;;;;;5116247;27;20079;-69
2023/03/14 06:46:18;;;;;;;10.77;1.80;;;;;;;;;;5124654;27;20490;-69
2023/03/14 06:48:44;;;;;;;13.27;1.63;;;;;;;;;;5116201;27;20431;-67
2023/03/14 06:51:10;;;;;;;7.10;1.40;;;;;;;;;;5116180;27;20039;-75
2023/03/14 06:53:36;;;;;;;9.65;1.52;;;;;;;;;;5123451;27;20039;-75
2023/03/14 06:56:02;;;;;;;5.75;1.40;;;;;;;;;;5115801;27;20072;-76
2023/03/14 06:58:28;;;;;;;14.88;1.73;;;;;;;;;;5115716;27;20547;-74
2023/03/14 07:00:54;;;;;;;18.48;2.35;;;;;;;;;;5115813;27;20040;-74
2023/03/14 07:03:21;;;;;;;10.02;1.45;;;;;;;;;;5115964;27;20047;-73
2023/03/14 07:05:47;;;;;;;12.57;1.48;;;;;;;;;;5116239;27;20509;-74
2023/03/14 07:08:14;;;;;;;12.35;1.70;;;;;;;;;;5115378;27;20049;-73
2023/03/14 07:10:40;;;;;;;12.30;1.58;;;;;;;;;;5079271;28;20130;-72
2023/03/14 07:13:06;;;;;;;9.20;1.70;;;;;;;;;;5084421;27;20039;-74
2023/03/14 07:15:32;;;;;;;13.18;2.10;;;;;;;;;;5133314;27;20047;-72
2023/03/14 07:17:58;;;;;;;8.40;1.60;;;;;;;;;;5134349;27;20435;-72
2023/03/14 07:20:24;;;;;;;11.45;1.55;;;;;;;;;;5116140;27;20031;-73
2023/03/14 07:22:51;;;;;;;17.73;2.10;;;;;;;;;;5115633;27;20067;-73
2023/03/14 07:25:17;;;;;;;11.40;1.73;;;;;;;;;;5116305;27;20133;-74
2023/03/14 07:27:44;;;;;;;9.48;1.85;;;;;;;;;;5134392;27;20046;-74
2023/03/14 07:30:11;;;;;;;8.35;1.75;;;;;;;;;;5099510;27;20122;-72
2023/03/14 07:32:37;;;;;;;10.70;1.90;;;;;;;;;;5110074;27;20035;-71
2023/03/14 07:35:03;;;;;;;11.20;1.45;;;;;;;;;;5131450;27;20410;-71
2023/03/14 07:37:29;;;;;;;14.38;1.65;;;;;;;;;;5115743;28;20471;-71
2023/03/14 07:39:55;;;;;;;10.32;1.90;;;;;;;;;;5115635;28;20043;-72
2023/03/14 07:42:21;;;;;;;14.82;2.00;;;;;;;;;;5115778;28;20053;-71
2023/03/14 07:44:48;;;;;;;11.30;2.63;;;;;;;;;;5120857;27;20117;-72
2023/03/14 07:47:14;;;;;;;15.55;3.13;;;;;;;;;;5136339;27;20046;-71
2023/03/14 07:49:40;;;;;;;14.32;2.22;;;;;;;;;;5154598;27;20639;-72
2023/03/14 07:52:06;;;;;;;14.90;2.60;;;;;;;;;;5119024;27;20070;-72
2023/03/14 07:54:32;;;;;;;10.77;2.20;;;;;;;;;;5123774;27;20047;-72
2023/03/14 07:57:01;;;;;;;25.17;2.42;;;;;;;;;;5115837;28;20054;-72
2023/03/14 07:59:28;;;;;;;13.93;2.17;;;;;;;;;;5115753;27;20047;-72
2023/03/14 08:01:54;;;;;;;15.95;2.50;;;;;;;;;;5134348;27;20129;-74
2023/03/14 08:04:20;;;;;;;14.90;3.35;;;;;;;;;;5098905;27;20035;-74
2023/03/14 08:06:46;;;;;;;19.88;3.33;;;;;;;;;;5115647;28;20410;-74
2023/03/14 08:09:12;;;;;;;20.33;2.90;;;;;;;;;;5117333;27;20058;-74
2023/03/14 08:11:38;;;;;;;18.50;2.42;;;;;;;;;;5139193;27;20080;-68
2023/03/14 08:14:04;;;;;;;20.25;2.92;;;;;;;;;;5126837;27;20039;-72
2023/03/14 08:16:30;;;;;;;15.02;2.20;;;;;;;;;;5118361;27;20031;-69
2023/03/14 08:18:57;;;;;;;21.27;4.53;;;;;;;;;;5118401;27;20046;-66
2023/03/14 08:21:23;;;;;;;18.08;2.97;;;;;;;;;;5122038;27;20028;-66
2023/03/14 08:23:49;;;;;;;19.85;3.75;;;;;;;;;;5117810;27;20042;-69
2023/03/14 08:26:15;;;;;;;29.65;4.47;;;;;;;;;;5117903;27;20042;-71
2023/03/14 08:28:41;;;;;;;21.42;3.28;;;;;;;;;;5118253;27;20471;-71
2023/03/14 08:31:07;;;;;;;17.58;2.35;;;;;;;;;;5117961;27;20035;-69
2023/03/14 08:33:33;;;;;;;17.60;2.58;;;;;;;;;;5101182;27;20483;-68
2023/03/14 08:36:00;;;;;;;22.33;3.63;;;;;;;;;;5118427;27;20023;-69
2023/03/14 08:38:26;;;;;;;20.98;3.47;;;;;;;;;;5119155;27;20043;-70
2023/03/14 08:41:00;;;;;;;24.60;2.90;;;;;;;;;;5118758;27;20130;-69
2023/03/14 08:43:26;;;;;;;29.85;3.97;;;;;;;;;;5136285;27;20127;-69
2023/03/14 08:45:53;;;;;;;26.90;4.32;;;;;;;;;;5153501;27;20039;-69
2023/03/14 08:48:19;;;;;;;41.53;4.40;;;;;;;;;;5119400;27;20035;-69
2023/03/14 08:50:46;;;;;;;25.92;3.45;;;;;;;;;;5119210;27;20072;-69
2023/03/14 08:53:12;;;;;;;30.60;3.92;;;;;;;;;;5119310;27;20051;-71
2023/03/14 08:55:38;;;;;;;25.65;3.78;;;;;;;;;;5131545;27;20047;-68
2023/03/14 08:58:04;;;;;;;28.45;3.95;;;;;;;;;;5081468;28;20039;-68
2023/03/14 09:00:30;;;;;;;32.33;3.28;;;;;;;;;;5092355;27;20031;-69
2023/03/14 09:02:56;;;;;;;34.78;4.65;;;;;;;;;;5116578;27;20118;-67
2023/03/14 09:05:22;;;;;;;19.77;3.60;;;;;;;;;;5133189;27;20039;-75
2023/03/14 09:07:48;;;;;;;22.05;2.83;;;;;;;;;;5113860;27;20039;-68
2023/03/14 09:10:15;;;;;;;30.13;4.55;;;;;;;;;;5134086;27;20034;-72
2023/03/14 09:12:41;;;;;;;24.35;3.63;;;;;;;;;;5116231;27;20051;-67
2023/03/14 09:15:07;;;;;;;30.67;3.78;;;;;;;;;;5129838;27;20092;-67
2023/03/14 09:17:33;;;;;;;27.15;4.20;;;;;;;;;;5098967;27;20043;-67
2023/03/14 09:19:59;;;;;;;40.08;3.72;;;;;;;;;;5110474;27;20386;-68
2023/03/14 09:22:26;;;;;;;28.50;3.63;;;;;;;;;;5108693;28;20131;-68
2023/03/14 09:24:52;;;;;;;24.88;3.58;;;;;;;;;;5101698;27;20046;-68
2023/03/14 09:27:18;;;;;;;29.50;4.47;;;;;;;;;;5117171;27;20059;-67
2023/03/14 09:29:44;;;;;;;27.17;3.75;;;;;;;;;;5112732;27;20469;-67
2023/03/14 09:32:10;;;;;;;42.10;3.90;;;;;;;;;;5116182;27;20114;-67
2023/03/14 09:34:36;;;;;;;27.50;3.92;;;;;;;;;;5122121;27;20031;-67
2023/03/14 09:37:02;;;;;;;34.50;4.15;;;;;;;;;;5108716;27;20386;-67
2023/03/14 09:39:28;;;;;;;28.85;4.00;;;;;;;;;;5134622;27;20106;-67
2023/03/14 09:41:57;;;;;;;31.38;3.50;;;;;;;;;;5098849;27;20050;-67
2023/03/14 09:44:30;;;;;;;20.23;2.83;;;;;;;;;;5115983;27;20039;-67
2023/03/14 09:46:59;;;;;;;26.52;3.67;;;;;;;;;;5124006;27;20474;-74
2023/03/14 09:49:28;;;;;;;21.83;3.45;;;;;;;;;;5115571;27;20039;-70
2023/03/14 09:51:55;;;;;;;19.23;3.08;;;;;;;;;;5114723;27;20039;-68
2023/03/14 09:54:27;;;;;;;28.58;3.58;;;;;;;;;;5115325;27;20051;-70
2023/03/14 09:56:54;;;;;;;20.55;2.88;;;;;;;;;;5133968;27;20047;-69
2023/03/14 09:59:21;;;;;;;18.67;3.67;;;;;;;;;;5115146;27;20099;-68
2023/03/14 10:01:47;;;;;;;20.25;3.40;;;;;;;;;;5113915;27;20475;-68
2023/03/14 10:04:15;;;;;;;17.70;3.00;;;;;;;;;;5114899;27;20110;-67
2023/03/14 10:06:41;;;;;;;16.27;2.65;;;;;;;;;;5115184;27;20031;-69
2023/03/14 10:09:13;;;;;;;16.30;2.85;;;;;;;;;;5122086;27;20032;-69
2023/03/14 10:11:40;;;;;;;19.45;3.05;;;;;;;;;;5133967;27;20106;-69
2023/03/14 10:14:12;;;;;;;19.60;3.08;;;;;;;;;;5131471;27;20039;-70
2023/03/14 10:16:46;;;;;;;13.57;2.40;;;;;;;;;;5114137;27;20065;-69
2023/03/14 10:19:13;;;;;;;14.80;2.55;;;;;;;;;;5114878;27;20060;-69
2023/03/14 10:21:42;;;;;;;17.55;2.45;;;;;;;;;;5113595;27;20043;-70
2023/03/14 10:24:09;;;;;;;17.48;2.75;;;;;;;;;;5114823;27;20040;-70
2023/03/14 10:26:35;;;;;;;19.17;2.55;;;;;;;;;;5125321;27;20471;-70
2023/03/14 10:29:10;;;;;;;15.82;2.22;;;;;;;;;;5112968;27;20491;-67
2023/03/14 10:31:48;;;;;;;12.68;2.13;;;;;;;;;;5112715;27;20039;-68
2023/03/14 10:34:21;;;;;;;15.07;2.83;;;;;;;;;;5110803;27;20111;-70
2023/03/14 10:36:52;;;;;;;16.55;2.25;;;;;;;;;;5112956;27;20043;-68
2023/03/14 10:39:18;;;;;;;13.52;3.45;;;;;;;;;;5111159;27;20039;-69
2023/03/14 10:41:48;;;;;;;13.90;2.53;;;;;;;;;;5142046;27;20037;-73
2023/03/14 10:44:16;;;;;;;18.20;2.92;;;;;;;;;;5129706;27;20130;-69
2023/03/14 10:46:42;;;;;;;12.38;2.15;;;;;;;;;;5115017;27;20039;-67
2023/03/14 10:49:23;;;;;;;10.90;2.05;;;;;;;;;;5098434;27;20483;-76
2023/03/14 10:51:49;;;;;;;9.20;2.17;;;;;;;;;;5108321;27;20068;-70
2023/03/14 10:54:20;;;;;;;13.35;1.60;;;;;;;;;;5096260;27;20094;-74
2023/03/14 10:56:56;;;;;;;12.45;2.13;;;;;;;;;;5116023;27;20122;-72
2023/03/14 10:59:22;;;;;;;7.40;1.73;;;;;;;;;;5114567;27;20070;-68
2023/03/14 11:01:53;;;;;;;9.90;2.20;;;;;;;;;;5125598;27;20031;-70
2023/03/14 11:04:31;;;;;;;12.30;2.72;;;;;;;;;;5113392;27;20791;-72
2023/03/14 11:07:04;;;;;;;7.22;1.85;;;;;;;;;;5111980;27;20088;-74
2023/03/14 11:09:43;;;;;;;6.70;2.45;;;;;;;;;;5106368;28;20065;-72
2023/03/14 11:12:16;;;;;;;12.45;2.40;;;;;;;;;;5110529;27;20091;-71
2023/03/14 11:14:47;;;;;;;10.50;1.55;;;;;;;;;;5100498;27;20475;-71
2023/03/14 11:17:13;;;;;;;4.68;1.73;;;;;;;;;;5115058;27;20062;-68
2023/03/14 11:19:51;;;;;;;10.60;2.17;;;;;;;;;;5105147;27;20043;-70
2023/03/14 11:22:23;;;;;;;15.10;1.70;;;;;;;;;;5109628;27;20039;-69
2023/03/14 11:24:52;;;;;;;10.77;2.00;;;;;;;;;;5099056;27;20485;-70
2023/03/14 11:27:22;;;;;;;9.23;1.90;;;;;;;;;;5133301;27;20050;-70
2023/03/14 11:29:56;;;;;;;15.45;3.15;;;;;;;;;;5114620;27;20043;-67
2023/03/14 11:32:32;;;;;;;11.35;2.53;;;;;;;;;;5112199;27;20050;-67
2023/03/14 11:34:58;;;;;;;6.88;1.90;;;;;;;;;;5119689;27;20057;-69
2023/03/14 11:37:36;;;;;;;11.00;2.22;;;;;;;;;;5113997;28;20034;-72
2023/03/14 11:40:09;;;;;;;23.10;2.92;;;;;;;;;;5147829;27;20501;-67
2023/03/14 11:42:35;;;;;;;12.43;2.45;;;;;;;;;;5108178;27;20083;-67
2023/03/14 11:45:03;;;;;;;11.10;2.65;;;;;;;;;;5101419;27;20402;-67
2023/03/14 11:47:31;;;;;;;10.68;2.13;;;;;;;;;;5118044;27;20050;-67
2023/03/14 11:50:00;;;;;;;15.63;2.58;;;;;;;;;;5115511;27;20050;-69
2023/03/14 11:52:29;;;;;;;20.95;3.45;;;;;;;;;;5114056;27;20039;-68
2023/03/14 11:54:55;;;;;;;16.83;2.35;;;;;;;;;;5111482;28;20047;-68
2023/03/14 11:57:22;;;;;;;14.23;2.88;;;;;;;;;;5115729;27;20130;-68
2023/03/14 11:59:56;;;;;;;16.38;2.33;;;;;;;;;;5101639;27;20088;-67
2023/03/14 12:02:24;;;;;;;9.95;2.28;;;;;;;;;;5101235;27;20572;-68
2023/03/14 12:05:18;;;;;;;12.80;2.30;;;7.00;99.90;;;;;;5114725;27;20092;-68
2023/03/14 12:08:03;;;;;;;13.48;2.28;;;;;;;;;;5144302;27;20043;-67
2023/03/14 12:10:30;;;;;;;14.88;2.22;;;;;;;;;;5115934;27;20086;-67
2023/03/14 12:12:56;;;;;;;10.38;1.85;;;;;;;;;;5104031;27;20035;-74
2023/03/14 12:15:24;;;;;;;7.22;1.58;;;;;;;;;;5116256;27;20035;-75
2023/03/14 12:17:56;;;;;;;9.80;2.13;;;;;;;;;;5142755;27;20139;-75
2023/03/14 12:20:26;;;;;;;8.80;1.90;;;;;;;;;;5115847;27;20032;-73
2023/03/14 12:22:53;;;;;;;13.43;2.38;;;;;;;;;;5098233;27;20040;-73
2023/03/14 12:25:22;;;;;;;9.98;1.58;;;;;;;;;;5115676;27;20104;-72
2023/03/14 12:27:49;;;;;;;10.20;1.60;;;;;;;;;;5114624;27;20131;-73
2023/03/14 12:30:28;;;;;;;14.68;2.65;;;;;;;;;;5115138;27;20035;-76
2023/03/14 12:33:15;;;;;;;8.13;2.10;;;;;;;;;;5116198;27;21231;-74
2023/03/14 12:35:45;;;;;;;4.20;1.35;;;;;;;;;;5118706;27;20049;-74
2023/03/14 12:38:30;;;;;;;10.63;1.73;;;;;;;;;;5100955;27;20027;-75
2023/03/14 12:40:56;;;;;;;9.32;1.77;;;;;;;;;;5117978;27;20028;-79
2023/03/14 12:43:33;;;;;;;11.30;2.20;;;;;;;;;;5119513;27;20043;-80
2023/03/14 12:46:17;;;;;;;15.18;3.38;;;;;;;;;;5134479;27;20027;-80
2023/03/14 12:48:45;;;;;;;15.93;2.10;;;;;;;;;;5133596;27;20040;-76
2023/03/14 12:51:58;;;;;;;7.30;2.03;;;7.60;98.10;;;;;;5117540;27;20068;-80
2023/03/14 12:57:45;;;;;;;7.82;2.13;;;;;;;;;;5117728;27;20122;-76
2023/03/14 13:00:18;;;;;;;11.70;2.10;;;;;;;;;;5135919;27;20394;-78
2023/03/14 13:02:45;;;;;;;15.15;2.00;;;;;;;;;;5117634;27;20176;-79
2023/03/14 13:05:24;;;;;;;12.55;2.00;;;;;;;;;;5118007;27;20051;-77
2023/03/14 13:07:50;;;;;;;11.43;1.85;;;;;;;;;;5116853;27;20067;-78
2023/03/14 13:10:32;;;;;;;8.27;2.03;;;;;;;;;;5117041;27;20043;-78
2023/03/14 13:13:22;;;;;;;11.80;2.08;;;;;;;;;;5100592;27;20042;-79
2023/03/14 13:15:50;;;;;;;8.70;1.92;;;;;;;;;;5122630;27;20368;-74
2023/03/14 13:18:18;;;;;;;7.32;1.60;;;;;;;;;;5117600;27;20039;-78
2023/03/14 13:21:02;;;;;;;11.90;1.95;;;7.90;96.80;;;;;;5117411;27;20046;-75
2023/03/14 13:23:30;;;;;;;6.65;1.73;;;;;;;;;;5133270;27;20035;-76
2023/03/14 13:25:57;;;;;;;7.72;1.77;;;;;;;;;;5135703;27;20371;-78
2023/03/14 13:28:23;;;;;;;10.57;2.03;;;;;;;;;;5117063;27;20039;-77
2023/03/14 13:30:51;;;;;;;13.18;2.30;;;;;;;;;;5132450;27;20072;-78
2023/03/14 13:33:22;;;;;;;8.90;1.92;;;;;;;;;;5135190;27;20045;-79
2023/03/14 13:35:50;;;;;;;8.85;1.95;;;;;;;;;;5135415;27;20057;-78
2023/03/14 13:38:26;;;;;;;11.45;1.63;;;;;;;;;;5114517;27;20073;-76
2023/03/14 13:40:59;;;;;;;8.68;1.70;;;;;;;;;;5117092;27;20035;-78
2023/03/14 13:44:08;;;;;;;16.60;2.83;;;7.80;96.70;;;;;;5116419;27;20085;-79
2023/03/14 13:46:36;;;;;;;7.30;1.67;;;;;;;;;;5116867;27;20047;-79
2023/03/14 13:49:04;;;;;;;7.85;2.15;;;;;;;;;;5132666;27;20046;-78
2023/03/14 13:51:32;;;;;;;7.18;1.65;;;;;;;;;;5116594;27;20046;-77
2023/03/14 13:57:15;;;;;;;8.25;1.65;;;;;;;;;;5135039;27;20498;-78
2023/03/14 13:59:44;;;;;;;4.78;1.95;;;;;;;;;;5116841;27;20057;-80
2023/03/14 14:02:13;;;;;;;8.20;1.63;;;;;;;;;;5135092;27;20035;-79
2023/03/14 14:04:40;;;;;;;6.03;1.58;;;;;;;;;;5126277;27;20395;-78
2023/03/14 14:07:11;;;;;;;6.63;1.30;;;;;;;;;;5120508;27;21393;-76
2023/03/14 14:09:43;;;;;;;10.47;1.80;;;;;;;;;;5115649;27;20042;-78
2023/03/14 14:12:17;;;;;;;5.57;1.53;;;;;;;;;;5126982;27;20054;-74
2023/03/14 14:14:47;;;;;;;7.95;1.67;;;;;;;;;;5132794;27;20292;-78
2023/03/14 14:17:14;;;;;;;6.32;1.83;;;;;;;;;;5147444;27;20031;-78
2023/03/14 14:19:41;;;;;;;5.07;1.40;;;;;;;;;;5144650;27;20067;-77
2023/03/14 14:22:10;;;;;;;9.15;1.40;;;;;;;;;;5139271;27;20039;-78
2023/03/14 14:24:36;;;;;;;14.13;1.83;;;;;;;;;;5115906;27;20062;-75
2023/03/14 14:27:09;;;;;;;12.73;1.88;;;;;;;;;;5113729;27;20102;-74
2023/03/14 14:29:35;;;;;;;9.75;1.55;;;;;;;;;;5115969;27;20047;-72
2023/03/14 14:32:12;;;;;;;7.97;1.88;;;;;;;;;;5115789;27;20043;-72
2023/03/14 14:34:48;;;;;;;10.80;1.70;;;;;;;;;;5115639;27;20039;-75
2023/03/14 14:37:19;;;;;;;10.50;1.88;;;;;;;;;;5118726;27;20464;-72
2023/03/14 14:39:45;;;;;;;11.52;1.80;;;;;;;;;;5116692;27;20047;-71
2023/03/14 14:42:21;;;;;;;12.27;2.20;;;;;;;;;;5124484;27;20058;-70
2023/03/14 14:44:49;;;;;;;13.70;2.17;;;;;;;;;;5096440;28;20031;-67